Time;durP1;ratioP1;P1;durP2;ratioP2;P2;SDS_P1;SDS_P2;PMS_P1;PMS_P2;Temp;Humidity;BMP_temperature;BMP_pressure;BME280_temperature;BME280_humidity;BME280_pressure;Samples;Min_cycle;Max_cycle;Signal;HPM_P1;HPM_P2
2021/03/12 00:01:12;;;;;;;14.20;2.05;;;6.50;99.90;;;;;;4995135;28;20042;-81
2021/03/12 00:03:38;;;;;;;10.65;1.85;;;6.50;99.90;;;;;;4980191;28;20062;-81
2021/03/12 00:06:07;;;;;;;16.65;2.22;;;6.60;99.90;;;;;;4990426;28;20153;-81
2021/03/12 00:08:39;;;;;;;11.80;2.05;;;6.60;99.90;;;;;;4986636;28;20496;-81
2021/03/12 00:11:07;;;;;;;10.18;1.38;;;6.60;99.90;;;;;;4985272;28;20064;-81
2021/03/12 00:13:34;;;;;;;7.43;1.35;;;6.70;99.90;;;;;;5006983;28;20109;-81
2021/03/12 00:16:02;;;;;;;5.63;1.10;;;6.70;99.90;;;;;;4993638;28;20056;-81
2021/03/12 00:18:34;;;;;;;11.60;1.77;;;6.80;99.90;;;;;;5003560;28;20050;-81
2021/03/12 00:21:02;;;;;;;10.77;2.10;;;6.80;99.90;;;;;;5004385;28;20034;-80
2021/03/12 00:23:28;;;;;;;6.63;1.35;;;6.90;99.90;;;;;;5004995;28;20054;-80
2021/03/12 00:25:55;;;;;;;13.55;1.92;;;6.90;99.90;;;;;;4987122;28;20462;-81
2021/03/12 00:28:21;;;;;;;13.95;1.95;;;6.90;99.90;;;;;;4985978;28;20053;-81
2021/03/12 00:30:47;;;;;;;7.65;1.60;;;7.00;99.90;;;;;;4987089;28;20057;-81
2021/03/12 00:33:15;;;;;;;8.73;1.70;;;7.00;99.90;;;;;;4987448;28;20100;-81
2021/03/12 00:35:43;;;;;;;12.02;1.58;;;7.00;99.90;;;;;;4992375;28;20046;-81
2021/03/12 00:38:11;;;;;;;16.83;2.17;;;6.90;99.90;;;;;;4984901;28;20042;-80
2021/03/12 00:40:48;;;;;;;12.32;1.90;;;6.90;99.90;;;;;;5009312;28;20080;-80
2021/03/12 00:43:15;;;;;;;10.13;1.58;;;6.90;99.90;;;;;;5006716;28;20073;-80
2021/03/12 00:45:44;;;;;;;6.20;1.20;;;6.80;99.90;;;;;;4994110;28;20073;-80
2021/03/12 00:48:11;;;;;;;11.52;1.45;;;6.80;99.90;;;;;;4991605;28;20058;-81
2021/03/12 00:50:39;;;;;;;9.93;1.50;;;6.70;99.90;;;;;;5004691;28;20058;-81
2021/03/12 00:53:06;;;;;;;7.03;1.15;;;6.70;99.90;;;;;;5006680;28;20857;-81
2021/03/12 00:55:34;;;;;;;11.80;2.63;;;6.60;99.90;;;;;;5010903;28;20054;-81
2021/03/12 00:58:02;;;;;;;9.57;1.63;;;6.60;99.90;;;;;;5007071;28;20049;-81
2021/03/12 01:00:30;;;;;;;15.65;1.52;;;6.50;99.90;;;;;;4990431;28;20056;-81
2021/03/12 01:02:58;;;;;;;6.03;1.23;;;6.50;99.90;;;;;;4988316;28;20450;-81
2021/03/12 01:05:26;;;;;;;7.55;1.38;;;6.50;99.90;;;;;;4992383;28;20568;-82
2021/03/12 01:07:53;;;;;;;18.17;1.92;;;6.40;99.90;;;;;;5009346;28;20080;-82
2021/03/12 01:10:20;;;;;;;9.30;2.58;;;6.30;99.90;;;;;;5004863;28;20057;-81
2021/03/12 01:12:46;;;;;;;8.45;1.88;;;6.30;99.90;;;;;;5010412;28;20054;-81
2021/03/12 01:15:16;;;;;;;5.38;0.90;;;6.30;99.90;;;;;;4990909;28;20140;-81
2021/03/12 01:17:43;;;;;;;4.07;1.13;;;6.30;99.90;;;;;;5006831;28;20054;-81
2021/03/12 01:20:38;;;;;;;6.43;1.20;;;6.20;99.90;;;;;;4996287;28;20589;-81
2021/03/12 01:23:05;;;;;;;9.57;1.17;;;6.20;99.90;;;;;;4990146;28;20057;-81
2021/03/12 01:25:39;;;;;;;11.70;1.52;;;6.20;99.90;;;;;;4988243;28;20124;-81
2021/03/12 01:28:07;;;;;;;9.73;1.30;;;6.20;99.90;;;;;;4992188;28;20046;-80
2021/03/12 01:30:40;;;;;;;4.07;1.20;;;6.20;99.90;;;;;;5008754;28;20124;-80
2021/03/12 01:33:07;;;;;;;8.63;1.30;;;6.20;99.90;;;;;;4989541;28;20136;-81
2021/03/12 01:35:35;;;;;;;8.05;1.02;;;6.20;99.90;;;;;;5003463;28;20060;-82
2021/03/12 01:38:01;;;;;;;6.75;1.42;;;6.20;99.90;;;;;;5007064;28;20137;-81
2021/03/12 01:40:29;;;;;;;6.10;1.35;;;6.20;99.90;;;;;;4989292;28;20164;-81
2021/03/12 01:42:57;;;;;;;7.35;2.10;;;6.30;99.90;;;;;;4992617;28;20792;-81
2021/03/12 01:45:34;;;;;;;17.02;2.42;;;6.40;99.90;;;;;;5009922;28;20460;-81
2021/03/12 01:48:01;;;;;;;5.72;1.25;;;6.40;99.90;;;;;;5009425;28;20386;-81
2021/03/12 01:50:28;;;;;;;11.52;1.60;;;6.50;99.90;;;;;;5007836;28;20168;-80
2021/03/12 01:52:55;;;;;;;8.73;1.45;;;6.40;99.90;;;;;;4994459;28;20076;-81
2021/03/12 01:55:30;;;;;;;6.60;1.50;;;6.50;99.90;;;;;;5008916;28;20104;-81
2021/03/12 01:57:57;;;;;;;10.25;2.60;;;6.50;99.90;;;;;;5009463;28;20056;-81
2021/03/12 02:00:24;;;;;;;18.40;2.22;;;6.50;99.90;;;;;;4990052;28;20572;-81
2021/03/12 02:02:51;;;;;;;13.65;1.45;;;6.50;99.90;;;;;;4998410;28;20438;-81
2021/03/12 02:05:17;;;;;;;17.60;2.30;;;6.50;99.90;;;;;;4997597;28;20077;-81
2021/03/12 02:07:44;;;;;;;9.75;1.40;;;6.50;99.90;;;;;;4991116;28;21131;-81
2021/03/12 02:10:14;;;;;;;14.07;1.55;;;6.60;99.90;;;;;;4992017;28;20145;-82
2021/03/12 02:12:53;;;;;;;14.02;1.90;;;6.60;99.90;;;;;;5005565;28;20425;-79
2021/03/12 02:15:51;;;;;;;9.57;2.47;;;6.60;99.90;;;;;;5004407;28;20043;-79
2021/03/12 02:18:38;;;;;;;8.00;1.42;;;6.60;99.90;;;;;;4968532;28;20476;-79
2021/03/12 02:21:10;;;;;;;10.88;1.77;;;6.60;99.90;;;;;;4996445;28;20104;-79
2021/03/12 02:23:51;;;;;;;6.78;1.48;;;6.50;99.90;;;;;;4996530;28;20446;-79
2021/03/12 02:26:23;;;;;;;14.63;1.58;;;6.50;99.90;;;;;;5003548;28;20048;-80
2021/03/12 02:28:52;;;;;;;11.68;1.38;;;6.40;99.90;;;;;;5004948;28;20115;-80
2021/03/12 02:31:19;;;;;;;10.18;1.13;;;6.30;99.90;;;;;;5006314;28;20931;-80
2021/03/12 02:33:46;;;;;;;12.68;1.25;;;6.20;99.90;;;;;;4993436;28;20054;-80
2021/03/12 02:36:13;;;;;;;8.88;1.95;;;6.20;99.90;;;;;;4993175;28;20042;-81
2021/03/12 02:38:41;;;;;;;17.65;2.22;;;6.10;99.90;;;;;;4994681;28;20061;-80
2021/03/12 02:41:08;;;;;;;8.77;1.58;;;6.00;99.90;;;;;;5006862;28;20110;-81
2021/03/12 02:43:36;;;;;;;9.15;1.25;;;6.00;99.90;;;;;;5008722;28;20178;-80
2021/03/12 02:46:04;;;;;;;8.52;1.52;;;5.90;99.90;;;;;;4990933;28;20573;-81
2021/03/12 02:48:32;;;;;;;8.73;1.10;;;5.90;99.90;;;;;;5007699;28;20104;-80
2021/03/12 02:50:58;;;;;;;10.05;1.30;;;5.80;99.90;;;;;;4991394;28;20137;-81
2021/03/12 02:53:26;;;;;;;19.20;1.98;;;5.70;99.90;;;;;;5004829;28;20072;-81
2021/03/12 02:55:54;;;;;;;10.35;1.02;;;5.70;99.90;;;;;;5003080;28;21847;-81
2021/03/12 02:58:21;;;;;;;12.10;1.65;;;5.60;99.90;;;;;;4993427;28;20041;-81
2021/03/12 03:00:48;;;;;;;15.20;2.05;;;5.60;99.90;;;;;;4991892;28;20230;-81
2021/03/12 03:03:15;;;;;;;20.10;1.75;;;5.50;99.90;;;;;;4976845;28;20142;-79
2021/03/12 03:05:43;;;;;;;12.55;2.25;;;5.50;99.90;;;;;;5004493;28;20053;-81
2021/03/12 03:08:11;;;;;;;8.40;1.95;;;5.50;99.90;;;;;;5007206;28;20149;-80
2021/03/12 03:10:38;;;;;;;4.75;1.25;;;5.40;99.90;;;;;;5007066;28;20160;-81
2021/03/12 03:13:05;;;;;;;10.77;1.33;;;5.40;99.90;;;;;;5006325;28;20046;-81
2021/03/12 03:15:31;;;;;;;4.72;1.08;;;5.40;99.90;;;;;;4994348;28;20126;-81
2021/03/12 03:17:59;;;;;;;11.98;1.25;;;5.30;99.90;;;;;;5006617;28;20049;-80
2021/03/12 03:20:26;;;;;;;10.10;1.10;;;5.20;99.90;;;;;;5007294;28;20076;-80
2021/03/12 03:22:53;;;;;;;8.43;0.95;;;5.20;99.90;;;;;;4995910;28;20579;-81
2021/03/12 03:25:19;;;;;;;8.63;1.33;;;5.20;99.90;;;;;;5008597;28;20050;-81
2021/03/12 03:27:46;;;;;;;8.45;1.10;;;5.20;99.90;;;;;;4997622;28;20085;-80
2021/03/12 03:30:14;;;;;;;11.63;1.52;;;5.20;99.90;;;;;;4993147;28;20075;-80
2021/03/12 03:32:41;;;;;;;6.72;1.25;;;5.10;99.90;;;;;;5011681;28;20054;-81
2021/03/12 03:35:10;;;;;;;10.07;1.42;;;5.10;99.90;;;;;;4995183;28;20076;-79
2021/03/12 03:37:36;;;;;;;15.88;1.83;;;5.10;99.90;;;;;;4994704;28;20054;-80
2021/03/12 03:40:05;;;;;;;14.68;1.73;;;5.00;99.90;;;;;;5007763;28;20076;-80
2021/03/12 03:42:34;;;;;;;9.40;1.20;;;5.00;99.90;;;;;;5006119;28;20056;-81
2021/03/12 03:45:04;;;;;;;15.88;2.33;;;5.00;99.90;;;;;;4999582;28;20050;-80
2021/03/12 03:47:32;;;;;;;10.13;2.33;;;5.00;99.90;;;;;;5000641;28;20050;-80
2021/03/12 03:50:00;;;;;;;9.00;2.17;;;5.00;99.90;;;;;;4989542;28;20048;-81
2021/03/12 03:52:27;;;;;;;10.82;1.67;;;5.00;99.90;;;;;;5006617;28;20096;-81
2021/03/12 03:54:55;;;;;;;9.07;1.50;;;4.90;99.90;;;;;;4988260;28;20140;-80
2021/03/12 03:57:22;;;;;;;10.43;1.45;;;4.90;99.90;;;;;;5007467;28;20060;-81
2021/03/12 03:59:49;;;;;;;17.63;1.98;;;4.90;99.90;;;;;;4998916;28;20077;-81
2021/03/12 04:02:17;;;;;;;14.73;1.38;;;4.90;99.90;;;;;;5005754;28;22087;-80
2021/03/12 04:04:49;;;;;;;14.88;2.03;;;4.90;99.90;;;;;;4996879;28;20107;-81
2021/03/12 04:07:19;;;;;;;8.32;1.63;;;4.90;99.90;;;;;;4992619;28;20045;-80
2021/03/12 04:09:49;;;;;;;9.75;2.28;;;4.90;99.90;;;;;;5003669;28;20053;-80
2021/03/12 04:12:17;;;;;;;10.52;1.67;;;4.80;99.90;;;;;;5002847;28;20136;-81
2021/03/12 04:14:46;;;;;;;8.43;1.42;;;4.80;99.90;;;;;;4991236;28;20129;-81
2021/03/12 04:17:14;;;;;;;17.27;2.03;;;4.80;99.90;;;;;;4988061;28;20050;-81
2021/03/12 04:19:43;;;;;;;20.88;2.80;;;4.70;99.90;;;;;;5003192;28;20108;-80
2021/03/12 04:22:10;;;;;;;16.55;2.40;;;4.70;99.90;;;;;;4986294;28;20066;-81
2021/03/12 04:24:38;;;;;;;13.63;2.15;;;4.70;99.90;;;;;;4993304;28;20060;-81
2021/03/12 04:27:05;;;;;;;14.50;1.60;;;4.70;99.90;;;;;;5000997;28;20054;-81
2021/03/12 04:29:32;;;;;;;17.70;2.58;;;4.70;99.90;;;;;;4988883;28;20061;-80
2021/03/12 04:31:59;;;;;;;13.13;2.40;;;4.70;99.90;;;;;;5002072;28;20076;-81
2021/03/12 04:34:26;;;;;;;19.42;2.33;;;4.70;99.90;;;;;;5003365;28;20053;-81
2021/03/12 04:36:53;;;;;;;12.05;1.77;;;4.70;99.90;;;;;;5002751;28;20058;-82
2021/03/12 04:39:21;;;;;;;17.77;2.63;;;4.70;99.90;;;;;;4986341;28;20060;-80
2021/03/12 04:41:47;;;;;;;13.00;1.77;;;4.70;99.90;;;;;;4988524;28;20054;-80
2021/03/12 04:44:14;;;;;;;13.70;2.30;;;4.80;99.90;;;;;;5001417;28;20054;-81
2021/03/12 04:46:40;;;;;;;17.50;2.33;;;4.80;99.90;;;;;;4990451;28;20053;-81
2021/03/12 04:49:12;;;;;;;15.82;2.53;;;4.80;99.90;;;;;;4988765;28;20129;-80
2021/03/12 04:51:39;;;;;;;9.57;1.48;;;4.80;99.90;;;;;;5002923;28;20066;-80
2021/03/12 04:54:09;;;;;;;13.88;1.63;;;4.80;99.90;;;;;;5003025;28;20104;-80
2021/03/12 04:56:37;;;;;;;8.85;1.52;;;4.80;99.90;;;;;;5003840;28;20229;-80
2021/03/12 04:59:06;;;;;;;12.73;2.35;;;4.90;99.90;;;;;;5002214;28;20053;-81
2021/03/12 05:01:37;;;;;;;8.18;1.48;;;4.90;99.90;;;;;;4987282;28;20100;-81
2021/03/12 05:04:05;;;;;;;8.90;1.13;;;4.90;99.90;;;;;;4985972;28;20057;-81
2021/03/12 05:06:33;;;;;;;9.50;1.98;;;4.90;99.90;;;;;;4985721;28;20054;-80
2021/03/12 05:08:59;;;;;;;15.10;2.85;;;4.90;99.90;;;;;;5002500;28;20049;-81
2021/03/12 05:11:28;;;;;;;12.32;2.65;;;4.90;99.90;;;;;;4992590;28;20050;-80
2021/03/12 05:13:54;;;;;;;13.50;1.90;;;4.90;99.90;;;;;;4990609;28;20080;-81
2021/03/12 05:16:20;;;;;;;11.30;1.33;;;4.90;99.90;;;;;;4980136;28;20129;-81
2021/03/12 05:18:47;;;;;;;14.45;1.88;;;4.90;99.90;;;;;;5005718;28;20050;-80
2021/03/12 05:21:14;;;;;;;9.82;1.73;;;4.90;99.90;;;;;;4990326;28;20049;-80
2021/03/12 05:23:41;;;;;;;11.43;1.40;;;4.90;99.90;;;;;;4991133;28;20152;-80
2021/03/12 05:26:07;;;;;;;11.00;1.52;;;4.90;99.90;;;;;;4993478;28;20053;-81
2021/03/12 05:28:34;;;;;;;13.40;1.65;;;4.90;99.90;;;;;;4991060;28;20057;-81
2021/03/12 05:31:00;;;;;;;19.58;1.83;;;4.80;99.90;;;;;;4987547;28;20048;-81
2021/03/12 05:33:27;;;;;;;10.82;2.00;;;4.90;99.90;;;;;;4995652;28;22980;-80
2021/03/12 05:35:53;;;;;;;8.88;1.40;;;4.80;99.90;;;;;;5006578;28;20058;-81
2021/03/12 05:38:20;;;;;;;4.57;1.60;;;4.90;99.90;;;;;;4989212;28;20133;-80
2021/03/12 05:40:46;;;;;;;12.20;3.38;;;4.90;99.90;;;;;;4995318;28;20049;-81
2021/03/12 05:43:12;;;;;;;18.10;1.55;;;4.90;99.90;;;;;;5004168;28;20084;-81
2021/03/12 05:45:51;;;;;;;14.30;1.50;;;4.90;99.90;;;;;;5009099;28;20177;-81
2021/03/12 05:48:19;;;;;;;10.93;1.75;;;4.90;99.90;;;;;;5010229;28;20417;-80
2021/03/12 05:50:46;;;;;;;14.55;1.73;;;4.80;99.90;;;;;;5005211;28;20089;-81
2021/03/12 05:53:13;;;;;;;15.55;1.73;;;4.80;99.90;;;;;;5008313;28;20064;-80
2021/03/12 05:55:39;;;;;;;11.98;3.00;;;4.90;99.90;;;;;;5008834;28;21154;-80
2021/03/12 05:58:06;;;;;;;17.10;3.45;;;4.80;99.90;;;;;;5005982;28;20041;-81
2021/03/12 06:00:35;;;;;;;11.90;1.50;;;4.90;99.90;;;;;;4992336;28;20104;-81
2021/03/12 06:03:02;;;;;;;9.90;1.88;;;4.90;99.90;;;;;;4992191;28;20153;-80
2021/03/12 06:05:29;;;;;;;11.52;2.92;;;4.90;99.90;;;;;;4991028;28;20582;-81
2021/03/12 06:07:55;;;;;;;15.25;2.78;;;5.00;99.90;;;;;;5005838;28;20053;-83
2021/03/12 06:10:23;;;;;;;18.30;2.53;;;4.90;99.90;;;;;;4997846;28;20406;-80
2021/03/12 06:12:55;;;;;;;17.05;1.83;;;5.00;99.90;;;;;;5005653;28;20054;-82
2021/03/12 06:15:39;;;;;;;10.90;2.25;;;5.00;99.90;;;;;;5006172;28;20032;-80
2021/03/12 06:18:24;;;;;;;11.68;2.30;;;5.00;99.90;;;;;;4994351;28;20141;-81
2021/03/12 06:20:54;;;;;;;10.55;2.20;;;5.00;99.90;;;;;;4993473;28;20053;-80
2021/03/12 06:23:38;;;;;;;13.70;2.08;;;5.00;99.90;;;;;;4978125;28;20053;-81
2021/03/12 06:26:04;;;;;;;11.68;1.85;;;5.10;99.90;;;;;;5007311;28;20050;-81
2021/03/12 06:28:31;;;;;;;13.85;2.53;;;5.10;99.90;;;;;;4989807;28;20085;-82
2021/03/12 06:30:58;;;;;;;12.27;2.55;;;5.10;99.90;;;;;;4993383;28;20861;-82
2021/03/12 06:33:33;;;;;;;7.28;2.67;;;5.10;99.90;;;;;;5011564;28;20114;-80
2021/03/12 06:36:02;;;;;;;8.80;2.97;;;5.10;99.90;;;;;;5007590;28;20070;-83
2021/03/12 06:38:29;;;;;;;18.52;3.42;;;5.20;99.90;;;;;;4998922;28;20138;-81
2021/03/12 06:40:55;;;;;;;19.75;2.78;;;5.20;99.90;;;;;;4999102;28;20048;-81
2021/03/12 06:43:23;;;;;;;10.02;2.47;;;5.20;99.90;;;;;;4992772;28;20798;-82
2021/03/12 06:45:52;;;;;;;15.32;3.40;;;5.20;99.90;;;;;;4989256;28;20132;-81
2021/03/12 06:48:33;;;;;;;14.40;2.25;;;5.30;99.90;;;;;;5000841;28;20145;-83
2021/03/12 06:51:10;;;;;;;8.80;1.88;;;5.30;99.90;;;;;;5008467;28;20117;-82
2021/03/12 06:53:41;;;;;;;8.57;1.63;;;5.30;99.90;;;;;;4995047;28;20432;-83
2021/03/12 06:56:10;;;;;;;13.95;2.28;;;5.40;99.90;;;;;;4988345;28;20045;-82
2021/03/12 06:58:36;;;;;;;13.57;3.03;;;5.40;99.90;;;;;;4971695;28;20466;-82
2021/03/12 07:01:19;;;;;;;28.63;3.45;;;5.40;99.90;;;;;;4997924;28;20520;-83
2021/03/12 07:04:14;;;;;;;17.63;2.88;;;5.50;99.90;;;;;;4984262;28;20058;-81
2021/03/12 07:06:48;;;;;;;7.60;2.10;;;5.60;99.90;;;;;;4988292;28;20046;-82
2021/03/12 07:09:14;;;;;;;;;;;5.60;99.90;;;;;;5002989;28;20052;-81
2021/03/12 07:11:41;;;;;;;13.52;3.20;;;5.70;99.90;;;;;;5004488;28;24816;-79
2021/03/12 07:14:07;;;;;;;14.40;2.42;;;5.70;99.90;;;;;;4984817;28;20046;-78
2021/03/12 07:16:36;;;;;;;14.70;2.25;;;5.70;99.90;;;;;;4989493;28;20123;-78
2021/03/12 07:19:06;;;;;;;16.55;3.33;;;5.70;99.90;;;;;;4973077;28;20052;-80
2021/03/12 07:21:41;;;;;;;11.20;1.95;;;5.70;99.90;;;;;;4948980;28;20459;-80
2021/03/12 07:24:10;;;;;;;16.30;2.15;;;5.80;99.90;;;;;;4973765;28;20046;-79
2021/03/12 07:26:48;;;;;;;19.42;2.75;;;5.90;99.90;;;;;;5002129;28;20141;-79
2021/03/12 07:29:17;;;;;;;13.85;2.40;;;5.90;99.90;;;;;;5005221;28;20057;-82
2021/03/12 07:31:49;;;;;;;5.22;1.20;;;6.00;99.90;;;;;;5004961;28;20050;-80
2021/03/12 07:34:20;;;;;;;14.40;2.20;;;6.10;99.90;;;;;;4990135;28;20058;-83
2021/03/12 07:36:49;;;;;;;14.45;1.70;;;6.10;99.90;;;;;;4982461;28;20093;-77
2021/03/12 07:39:21;;;;;;;14.05;1.90;;;6.20;99.90;;;;;;5002212;28;20101;-79
2021/03/12 07:41:48;;;;;;;12.68;2.25;;;6.20;99.90;;;;;;5004479;28;20382;-79
2021/03/12 07:44:18;;;;;;;18.60;2.25;;;6.30;99.90;;;;;;5004861;28;20077;-81
2021/03/12 07:46:52;;;;;;;20.00;2.20;;;6.50;99.90;;;;;;5002887;28;20105;-80
2021/03/12 07:49:33;;;;;;;15.35;2.60;;;6.60;99.90;;;;;;4994790;28;20332;-81
2021/03/12 07:52:01;;;;;;;15.68;3.70;;;6.80;99.90;;;;;;5006784;28;20054;-83
2021/03/12 07:54:45;;;;;;;27.20;2.15;;;7.10;99.90;;;;;;4989778;28;20555;-83
2021/03/12 07:57:36;;;;;;;10.55;1.73;;;7.40;99.90;;;;;;5001876;28;20077;-83
2021/03/12 08:00:05;;;;;;;16.73;2.28;;;7.70;99.90;;;;;;4985490;28;20042;-83
2021/03/12 08:02:50;;;;;;;16.55;2.65;;;7.90;99.90;;;;;;4992525;28;20615;-83
2021/03/12 08:05:34;;;;;;;13.45;2.00;;;8.00;99.90;;;;;;5009932;28;20069;-82
2021/03/12 08:08:02;;;;;;;11.30;3.28;;;8.10;99.90;;;;;;4983277;28;20745;-85
2021/03/12 08:10:28;;;;;;;12.23;2.30;;;8.20;99.90;;;;;;4992232;28;20117;-85
2021/03/12 08:12:55;;;;;;;21.92;3.05;;;8.40;99.90;;;;;;5010450;28;20041;-86
2021/03/12 08:15:29;;;;;;;23.45;2.80;;;8.60;99.90;;;;;;5009022;28;20103;-84
2021/03/12 08:17:56;;;;;;;15.45;2.47;;;8.80;99.90;;;;;;5011951;28;20109;-85
2021/03/12 08:20:25;;;;;;;10.68;2.63;;;8.90;99.90;;;;;;4990233;28;20683;-85
2021/03/12 08:22:59;;;;;;;15.48;2.53;;;8.80;99.90;;;;;;5006760;28;20080;-84
2021/03/12 08:25:41;;;;;;;13.73;2.42;;;8.70;99.90;;;;;;5005800;28;20058;-85
2021/03/12 08:28:08;;;;;;;11.27;3.33;;;8.60;99.90;;;;;;4994961;28;20057;-84
2021/03/12 08:30:34;;;;;;;13.40;2.40;;;8.60;99.90;;;;;;5007188;28;20088;-84
2021/03/12 08:33:05;;;;;;;21.85;2.80;;;8.60;99.90;;;;;;5010233;28;20045;-85
2021/03/12 08:35:35;;;;;;;24.88;5.10;;;8.70;99.90;;;;;;4990108;28;20113;-85
2021/03/12 08:38:05;;;;;;;18.60;3.55;;;8.80;99.90;;;;;;5002861;28;20054;-85
2021/03/12 08:40:33;;;;;;;10.60;2.65;;;9.00;99.90;;;;;;5007668;28;20069;-85
2021/03/12 08:43:15;;;;;;;16.25;3.00;;;9.20;99.90;;;;;;4988424;28;20108;-83
2021/03/12 08:45:43;;;;;;;15.27;4.30;;;9.20;99.90;;;;;;5005644;28;20532;-81
2021/03/12 08:48:11;;;;;;;16.92;2.58;;;9.10;99.90;;;;;;4997014;28;20084;-82
2021/03/12 08:51:02;;;;;;;17.40;2.42;;;9.00;99.90;;;;;;5004969;28;20060;-83
2021/03/12 08:53:33;;;;;;;18.17;3.28;;;9.10;99.90;;;;;;4988665;28;20053;-82
2021/03/12 08:56:03;;;;;;;18.80;2.45;;;9.30;99.90;;;;;;4995774;28;20062;-82
2021/03/12 08:58:34;;;;;;;22.08;3.85;;;9.40;99.90;;;;;;4970824;28;20050;-82
2021/03/12 09:01:13;;;;;;;21.63;3.67;;;9.60;99.90;;;;;;5012931;28;20079;-82
2021/03/12 09:03:46;;;;;;;17.98;3.20;;;9.70;99.90;;;;;;5004630;28;20547;-83
2021/03/12 09:06:16;;;;;;;14.88;3.13;;;9.70;99.90;;;;;;4996243;28;20057;-82
2021/03/12 09:08:54;;;;;;;22.60;2.88;;;9.70;99.90;;;;;;4991736;28;20049;-81
2021/03/12 09:11:22;;;;;;;32.83;3.83;;;9.60;99.90;;;;;;5001764;28;20100;-82
2021/03/12 09:13:50;;;;;;;17.90;2.30;;;9.50;99.90;;;;;;4995034;28;20133;-83
2021/03/12 09:16:25;;;;;;;13.32;2.38;;;9.50;99.90;;;;;;5000378;28;20057;-82
2021/03/12 09:18:54;;;;;;;20.77;2.53;;;9.50;99.90;;;;;;4986411;28;20124;-82
2021/03/12 09:21:29;;;;;;;16.73;2.58;;;9.60;99.90;;;;;;5013564;28;20057;-82
2021/03/12 09:24:00;;;;;;;13.15;2.55;;;9.60;99.90;;;;;;4993597;28;20106;-83
2021/03/12 09:26:33;;;;;;;26.23;5.18;;;9.60;99.90;;;;;;5000336;28;20076;-82
2021/03/12 09:29:06;;;;;;;10.70;2.83;;;9.50;99.90;;;;;;5007593;28;20053;-82
2021/03/12 09:31:35;;;;;;;14.93;3.80;;;9.50;99.90;;;;;;4996760;28;20033;-83
2021/03/12 09:34:04;;;;;;;20.63;3.38;;;9.50;99.90;;;;;;5007932;28;20387;-82
2021/03/12 09:36:33;;;;;;;20.67;3.08;;;9.60;99.90;;;;;;5008171;28;20141;-82
2021/03/12 09:39:08;;;;;;;21.73;3.83;;;9.70;99.90;;;;;;5008122;28;20785;-82
2021/03/12 09:41:37;;;;;;;13.63;2.80;;;9.70;99.90;;;;;;5008157;28;20080;-82
2021/03/12 09:44:13;;;;;;;21.02;4.15;;;9.80;99.90;;;;;;5008912;28;20045;-82
2021/03/12 09:46:43;;;;;;;24.90;4.70;;;9.90;99.90;;;;;;5009491;28;20478;-82
2021/03/12 09:49:37;;;;;;;19.38;3.20;;;10.10;99.90;;;;;;4992795;28;20148;-82
2021/03/12 09:52:13;;;;;;;24.73;3.42;;;10.20;99.90;;;;;;5009842;28;20054;-82
2021/03/12 09:54:42;;;;;;;16.17;3.03;;;10.10;99.90;;;;;;5009591;28;20105;-82
2021/03/12 09:57:09;;;;;;;17.33;2.90;;;10.00;99.90;;;;;;5009247;28;20042;-82
2021/03/12 09:59:37;;;;;;;26.25;3.58;;;9.90;99.90;;;;;;5009012;28;20050;-83
2021/03/12 10:02:20;;;;;;;;;;;9.90;99.90;;;;;;5009681;28;20042;-85
2021/03/12 10:04:56;;;;;;;16.80;3.67;;;9.80;99.90;;;;;;4980474;28;19963;-82
2021/03/12 10:07:40;;;;;;;15.18;3.97;;;9.80;99.90;;;;;;4993935;28;20049;-83
2021/03/12 10:10:22;;;;;;;14.88;4.00;;;9.80;99.90;;;;;;4988033;28;20080;-84
2021/03/12 10:12:51;;;;;;;17.50;4.05;;;9.70;99.90;;;;;;5007641;28;20630;-85
2021/03/12 10:15:38;;;;;;;19.70;2.92;;;9.70;99.90;;;;;;4996040;28;20049;-86
2021/03/12 10:18:15;;;;;;;19.47;3.67;;;9.60;99.90;;;;;;5000883;28;20091;-86
2021/03/12 10:20:42;;;;;;;22.23;3.75;;;9.30;99.90;;;;;;4989263;28;20511;-84
2021/03/12 10:23:10;;;;;;;22.27;4.65;;;9.00;99.90;;;;;;4975446;28;20053;-86
2021/03/12 10:25:48;;;;;;;19.48;4.30;;;8.70;99.90;;;;;;4979741;28;20054;-83
2021/03/12 10:28:18;;;;;;;27.27;4.30;;;8.50;99.90;;;;;;4992804;28;20054;-86
2021/03/12 10:30:47;;;;;;;31.48;5.32;;;8.40;99.90;;;;;;5011854;28;20053;-85
2021/03/12 10:33:22;;;;;;;14.63;3.80;;;8.20;99.90;;;;;;5009711;28;20106;-83
2021/03/12 10:35:53;;;;;;;22.75;4.45;;;8.10;99.90;;;;;;4993895;28;20096;-85
2021/03/12 10:38:23;;;;;;;20.30;5.15;;;8.00;99.90;;;;;;4994367;28;20456;-83
2021/03/12 10:41:24;;;;;;;21.88;3.75;;;7.80;99.90;;;;;;4989297;28;20053;-85
2021/03/12 10:44:06;;;;;;;17.92;3.38;;;7.70;99.90;;;;;;4990686;28;20101;-85
2021/03/12 10:46:35;;;;;;;25.25;4.57;;;7.50;99.90;;;;;;4985672;28;20049;-86
2021/03/12 10:49:04;;;;;;;18.92;4.60;;;7.30;99.90;;;;;;5012359;28;20136;-84
2021/03/12 10:51:39;;;;;;;23.67;5.05;;;7.20;99.90;;;;;;5002319;28;20053;-84
2021/03/12 10:54:12;;;;;;;13.45;3.53;;;7.20;99.90;;;;;;4999440;28;20058;-85
2021/03/12 10:56:47;;;;;;;10.57;2.80;;;7.20;99.90;;;;;;4994789;28;20046;-84
2021/03/12 10:59:13;;;;;;;16.23;3.35;;;7.10;99.90;;;;;;5007603;28;20054;-88
2021/03/12 11:01:46;;;;;;;11.52;3.28;;;7.20;99.90;;;;;;4996460;28;20058;-83
2021/03/12 11:04:14;;;;;;;19.23;2.95;;;7.30;99.90;;;;;;4990499;28;20049;-86
2021/03/12 11:06:42;;;;;;;12.52;2.40;;;7.60;99.90;;;;;;5001692;28;20050;-82
2021/03/12 11:09:10;;;;;;;10.95;2.90;;;7.60;99.90;;;;;;4987231;28;20038;-85
2021/03/12 11:11:37;;;;;;;13.68;2.70;;;7.60;99.90;;;;;;4993386;28;20112;-85
2021/03/12 11:14:05;;;;;;;10.10;2.25;;;7.60;99.90;;;;;;5007393;28;20061;-80
2021/03/12 11:16:32;;;;;;;9.50;2.25;;;7.50;99.90;;;;;;4986477;28;20050;-81
2021/03/12 11:18:58;;;;;;;13.35;3.33;;;7.50;99.90;;;;;;4989014;28;20058;-81
2021/03/12 11:21:28;;;;;;;20.35;3.85;;;7.50;99.90;;;;;;5006070;28;20061;-80
2021/03/12 11:23:54;;;;;;;11.55;3.28;;;7.60;99.90;;;;;;5006284;28;20128;-80
2021/03/12 11:26:22;;;;;;;12.48;3.63;;;7.70;99.90;;;;;;5007793;28;20136;-83
2021/03/12 11:28:48;;;;;;;15.07;3.42;;;7.70;99.90;;;;;;4996299;28;20122;-80
2021/03/12 11:31:15;;;;;;;14.95;3.05;;;7.90;99.90;;;;;;4988614;28;20084;-81
2021/03/12 11:33:41;;;;;;;15.02;3.85;;;8.00;99.90;;;;;;4995033;28;20137;-81
2021/03/12 11:36:08;;;;;;;14.25;2.92;;;8.20;99.90;;;;;;4988565;28;20497;-79
2021/03/12 11:38:35;;;;;;;21.65;4.45;;;8.40;99.90;;;;;;4994750;28;20494;-80
2021/03/12 11:41:02;;;;;;;13.98;2.88;;;8.50;99.90;;;;;;4992587;28;20607;-81
2021/03/12 11:43:28;;;;;;;11.65;3.22;;;8.70;99.90;;;;;;4985710;28;20050;-78
2021/03/12 11:45:55;;;;;;;9.25;2.20;;;8.80;99.90;;;;;;4968670;28;20085;-81
2021/03/12 11:48:22;;;;;;;13.00;3.17;;;8.90;99.90;;;;;;5005592;28;20045;-80
2021/03/12 11:50:50;;;;;;;11.40;2.80;;;8.80;99.90;;;;;;4983125;28;20096;-81
2021/03/12 11:53:21;;;;;;;18.20;3.38;;;8.80;99.90;;;;;;5005934;28;20073;-81
2021/03/12 11:55:48;;;;;;;15.52;2.85;;;8.70;99.90;;;;;;5000534;28;20409;-80
2021/03/12 11:58:14;;;;;;;14.32;3.13;;;8.60;99.90;;;;;;5002588;28;20053;-78
2021/03/12 12:00:41;;;;;;;11.73;3.22;;;8.60;99.90;;;;;;4986511;28;20069;-76
2021/03/12 12:03:09;;;;;;;11.25;2.65;;;8.70;99.90;;;;;;5006736;28;20053;-80
2021/03/12 12:05:35;;;;;;;18.92;3.33;;;8.80;99.90;;;;;;4995458;28;20123;-79
2021/03/12 12:08:02;;;;;;;18.15;4.80;;;8.90;99.90;;;;;;5005839;28;20058;-79
2021/03/12 12:10:28;;;;;;;13.82;3.47;;;8.80;99.90;;;;;;4997276;28;20048;-78
2021/03/12 12:12:57;;;;;;;16.85;4.13;;;8.70;99.90;;;;;;5001963;28;20054;-79
2021/03/12 12:15:29;;;;;;;11.30;3.22;;;8.90;99.90;;;;;;5003235;28;20561;-79
2021/03/12 12:18:00;;;;;;;16.00;3.72;;;9.00;99.90;;;;;;5005356;28;20136;-79
2021/03/12 12:20:29;;;;;;;16.85;4.47;;;8.90;99.90;;;;;;4991173;28;20054;-81
2021/03/12 12:22:56;;;;;;;16.25;3.97;;;8.60;99.90;;;;;;4979179;28;20056;-81
2021/03/12 12:25:23;;;;;;;16.25;3.08;;;8.40;99.90;;;;;;4987658;28;20861;-78
2021/03/12 12:27:49;;;;;;;13.93;4.40;;;8.10;99.90;;;;;;4991528;28;21723;-80
2021/03/12 12:30:15;;;;;;;21.33;4.90;;;7.80;99.90;;;;;;4984170;28;20060;-78
2021/03/12 12:32:44;;;;;;;13.88;4.13;;;7.60;99.90;;;;;;5002419;28;20046;-78
2021/03/12 12:35:11;;;;;;;13.35;3.97;;;7.50;99.90;;;;;;5001325;28;20045;-78
2021/03/12 12:37:38;;;;;;;12.90;3.45;;;7.50;99.90;;;;;;4983505;28;20456;-78
2021/03/12 12:40:05;;;;;;;7.93;3.28;;;7.60;99.90;;;;;;4973605;28;20448;-81
2021/03/12 12:42:32;;;;;;;16.75;3.90;;;7.60;99.90;;;;;;4985285;28;20098;-82
2021/03/12 12:44:59;;;;;;;8.27;3.42;;;7.70;99.90;;;;;;4988000;28;20050;-81
2021/03/12 12:47:25;;;;;;;15.13;4.97;;;7.70;99.90;;;;;;4992753;28;20050;-79
2021/03/12 12:49:52;;;;;;;16.60;3.88;;;7.70;99.90;;;;;;4997256;28;20050;-79
2021/03/12 12:52:19;;;;;;;17.17;4.45;;;7.70;99.90;;;;;;4965651;28;20039;-81
2021/03/12 12:54:45;;;;;;;18.88;4.65;;;7.70;99.90;;;;;;4981468;28;20053;-81
2021/03/12 12:57:11;;;;;;;18.33;3.92;;;7.70;99.90;;;;;;4966846;28;20110;-80
2021/03/12 12:59:38;;;;;;;22.23;4.47;;;7.70;99.90;;;;;;4979851;28;20188;-81
2021/03/12 13:02:04;;;;;;;16.42;3.65;;;7.60;99.90;;;;;;4966723;28;20138;-78
2021/03/12 13:04:31;;;;;;;14.43;3.92;;;7.70;99.90;;;;;;4963776;28;20081;-79